今日のアクセス数

    岡山グライダークラブ活動状況掲示板

岡山グライダークラブ
岡山市浦安南町639-1 岡南飛行場
 使用機:シャイベ式 SF25C型 ファルケ   JA2330
      ヴァレンティン式17E型 タイフーン  JA2342
 練習日:毎日曜日  クラブルーム:電話 086-265-1810
この掲示板は岡山グライダークラブの活動状況をお知らせする掲示板です。
!!!この掲示板は投稿規制をしています。!!!
クラブ関連各種情報は 岡山グライダークラブクラブルーム      を       .
  ブリーフイング情報は  岡山グライダークラブブリーフィングルーム  をご覧下さい。 .
※写真はクリックすると拡大して見ることが出来ます。
岡南飛行場へのアクセス等は 岡南飛行場管理事務所 をご覧ください。
クラブの ホームページ ができました。

!!!緊急事態宣言、まん延防止等重点措置の解除に伴い、見学者等の受入を再開します。なお、来所の際には、こちらを順守願います。

ページ 1 (1〜10)ホームページへ戻る

12月05日
by OGC at 2021/12/5(日) 21:33:45 No.20211205211613 コメント】  削除 引用
640 x 480 x 121,715バイト
No.1

12月05日
本日の参加者
  会員      16名
  その他      0名


@本日の様子






METAR
RJBK 050000Z 20003KT 160V240 30KM FEW020CU BKN050SC 07/04 Q1029 A3041
RJOB 050000Z VRB02KT 9999 FEW020 BKN045 07/02 Q1028
RJOT 050000Z 14004KT 9999 FEW025 BKN045 07/04 Q1029
RJOA 050000Z 07004KT 040V100 9999 FEW020 BKN045 06/00 Q1028
TAF
RJOB 042305Z 0500/0606 05005KT 9999 FEW030
RJOT 042306Z 0500/0606 04006KT 9999 FEW025 SCT050
RJOA 042306Z 0500/0606 15005KT 9999 FEW025 BKN045

本日は、風も弱く飛びやすい一日でした。
訓練生は、ソロフライトや基礎訓練を行っていました。
また、ライセンサーは時間の関係上、ショートフライトになり、フライト回数は伸びましたが、
総フライト時間は伸び悩む結果になりました。


解散    16:50

1番機  10:40離陸 撤収機  16:30着陸 

SF25C JA2330 ファルケ     12Flt.2h50min  
17E   JA2342 タイフーン    01Flt.0h05min
合計                    13Flt.2h55min

 ハードディスクが読み込まない時に注意したい事と復旧する方法    Macのデータ復旧・自分でできる復元方法やバックアップ対策を紹介!

12月04日
by OGC at 2021/12/5(日) 21:16:08 No.20211205204955 コメント】  削除 引用
640 x 480 x 138,508バイト
No.1

12月04日
本日の参加者
  会員       6名
  その他      0名


@本日の様子






METAR
RJBK 040000Z 27018KT 30KM FEW025CU 08/01 Q1019 A3011
RJOB 040000Z 26010KT 240V300 9999 FEW020 07/01 Q1018
RJOT 040000Z 28012KT 9999 FEW025 07/02 Q1019
RJOA 040000Z 27010KT 9999 FEW020 BKN050 05/M02 Q1020
TAF
RJOB 032306Z 0400/0506 29011KT 9999 FEW025 SCT045
     BECMG 0421/0500 04004KT
RJOT 032305Z 0400/0506 27016KT 9999 FEW025 SCT050
     TEMPO 0400/0406 27018G28KT
     BECMG 0412/0415 15005KT
RJOA 032305Z 0400/0506 30013KT 9999 FEW025
     BECMG 0421/0500 12005KT

本日は、正対風ですが風が強い一日でした。
訓練生はTGL訓練を繰り返していました。
一方、ライセンサーはリッジ等の上昇気流で滑空を楽しんでいました。

解散    16:30

1番機  11:50離陸 撤収機  15:50着陸 

SF25C JA2330 ファルケ     04Flt.2h30min  
17E   JA2342 タイフーン    00Flt.0h00min
合計                    04Flt.2h30min

11月28日
by OGC at 2021/11/28(日) 22:57:50 No.20211128225329 コメント】  削除 引用
640 x 480 x 153,508バイト
No.1

11月28日
本日の参加者
  会員      18名
  その他      3名


@本日の様子






METAR
RJBK 280000Z 22003KT 190V250 30KM FEW025CU 05/02 Q1035 A3058
RJOB 280000Z VRB01KT 9999 FEW015 08/02 Q1034
RJOT 280000Z 22003KT 170V260 9999 FEW020 08/04 Q1034
RJOA 280000Z VRB02KT 9999 FEW020 06/02 Q1034
TAF
RJOB 272305Z 2800/2906 02005KT 9999 FEW030
     BECMG 2900/2903 20004KT
RJOT 272305Z 2800/2906 03005KT 9999 FEW030
     BECMG 2900/2903 32005KT
RJOA 272305Z 2800/2906 07005KT 9999 FEW030
     BECMG 2809/2811 32004KT

今朝は気温が低く、空気が乾燥していたので、サーマルは微妙かな〜?と思っていましたが、期待以上にしっかりとしたサーマルがありました。
本日、訓練生はセカンドソロに出たり、TGL訓練を行っていました。
一方、ライセンサーはこの時期、恒例の剣山ツアーやサーマルを探し回っていました。

解散    17:10

1番機  10:25離陸 撤収機  16:35着陸 

SF25C JA2330 ファルケ     10Flt.3h35min  
17E   JA2342 タイフーン    04Flt.2h55min
合計                    14Flt.6h30min
11月21日
by OGC at 2021/11/21(日) 19:54:59 No.20211121195358 コメント】  削除 引用
640 x 480 x 155,627バイト
No.1

11月21日
本日の参加者
  会員      17名
  その他      0名


@本日の様子






METAR
RJOB 210000Z VRB02KT 9999 FEW025 BKN/// 10/07 Q1021
RJOT 210000Z 14004KT 100V170 9999 FEW025 BKN/// 13/09 Q1021
RJOA 210000Z 08007KT CAVOK 12/09 Q1021
TAF
RJOB 202305Z 2100/2206 06004KT 9999 FEW025
     BECMG 2102/2104 16006KT
     BECMG 2107/2109 03005KT
     TEMPO 2121/2203 2000 SHRA BR BCFG FEW000 BKN005 BKN012
     BECMG 2200/2203 26010KT
RJOT 202308Z 2100/2206 06006KT 9999 FEW030
     TEMPO 2121/2203 2000 SHRA BR FEW001 SCT003 BKN005
     BECMG 2200/2203 26016KT
     TEMPO 2203/2206 4000 SHRA BR FEW003 BKN008 BKN015
RJOA 202308Z 2100/2206 16005KT 9999 FEW030
     TEMPO 2121/2203 2000 SHRA BR BCFG FEW000 SCT003 BKN005
     BECMG 2200/2203 28012KT
     TEMPO 2203/2206 4000 SHRA BR FEW005 BKN008 BKN015

本日の天候は朝のち曇り、風も弱く、絶好のソロ日和となりました。
本日、訓練生1名がファーストソロに出て、見事なランディングを決めました。\(^o^)/
一方、ライセンサーは小豆島や四国方面にナビで出ていました。

解散    17:30

1番機  10:35離陸 撤収機  16:25着陸 

SF25C JA2330 ファルケ     10Flt.3h10min  
17E   JA2342 タイフーン    04Flt.2h15min
合計                    14Flt.5h25min
11月20日
by OGC at 2021/11/20(土) 20:32:30 No.20211120203053 コメント】  削除 引用
640 x 480 x 134,159バイト
No.1

11月20日
本日の参加者
  会員       8名
  その他      0名


@本日の様子






METAR
RJBK 200000Z VRB01KT 15KM BCFG FEW020CU 10/08 Q1020 A3013 RMK 4KM S
RJOB 200000Z 02003KT CAVOK 14/10 Q1019
RJOT 200000Z 15003KT 9999 FEW025 13/09 Q1019
RJOA 200000Z 04003KT 340V130 CAVOK 13/08 Q1019
TAF
RJOB 192306Z 2000/2106 07006KT 9999 FEW020 SCT045
RJOT 192306Z 2000/2106 06006KT 9999 FEW030
RJOA 192306Z 2000/2106 15005KT 9999 FEW030

本日の天候は朝、霧が出ていたようですが晴れ。
訓練生は離着陸訓練や単独飛行訓練を行っていました。


解散    18:00

1番機  10:30離陸 撤収機  16:20着陸 

SF25C JA2330 ファルケ     07Flt.3h55min  
17E   JA2342 タイフーン    00Flt.0h00min
合計                    07Flt.3h55min
11月14日
by OGC at 2021/11/15(月) 00:10:16 No.20211115000618 コメント】  削除 引用
1024 x 768 x 32,265バイト
No.1

11月14日
本日の参加者
  会員      17名
  その他      1名


@本日の様子






METAR
RJBK 132200Z VRB02KT FEW035CU 09/06 Q1020 A3015
RJOB 132200Z 00000KT 9999 FEW004 BKN170 05/03 Q1019
RJOT 132200Z 14009KT 9999 FEW030 BKN110 09/06 Q1019
RJOA 132200Z VRB01KT 9999 FEW020 SCT060 09/06 Q1019
TAF
RJOB 132307Z 1400/1506 05004KT 9999 FEW025 SCT045
       BECMG 1400/1402 22007KT
       BECMG 1409/1411 35005KT
       BECMG 1500/1503 23005KT
RJOT 132307Z 1400/1506 15006KT 9999 FEW025 SCT045
       BECMG 1401/1403 26010KT
       BECMG 1409/1411 15007KT
       BECMG 1500/1503 27010KT
RJOA 132307Z 1400/1506 28009KT 9999 FEW025 SCT045

本日の天候は晴れ。
本日は笠岡農道空港でのイベントに参加し、岡南と笠岡に分かれての活動になりました。
訓練生は笠岡で普段と違う飛行場での離着陸訓練ができました。一方、岡南ではNAV訓練や笠岡農道空港イベントにローパス参加していました。


解散    18:00

1番機  09:05離陸 撤収機  16:25着陸 

SF25C JA2330 ファルケ     07Flt.2h15min  
17E   JA2342 タイフーン    04Flt.2h35min
合計                    15Flt.4h50min
11月07日
by OGC at 2021/11/7(日) 21:03:31 No.20211107210239 コメント】  削除 引用
640 x 480 x 130,111バイト
No.1

11月07日
本日の参加者
  会員      16名
  その他      3名


@本日の様子






METAR
RJBK 070000Z VRB02KT 35KM FEW035CU SCT150AC 12/10 Q1022 A3018
RJOB 070000Z 01009KT 9999 FEW025 SCT035 16/08 Q1021
RJOT 070000Z 15003KT 9999 FEW020 SCT035 BKN060 14/11 Q1021
RJOA 070000Z 05010KT 9999 FEW025 14/08 Q1021
TAF
RJOB 062305Z 0700/0806 07008KT 9999 FEW025 SCT045
RJOT 062307Z 0700/0806 14006KT 9999 FEW020 BKN050
       BECMG 0700/0702 07012KT
RJOA 062307Z 0700/0806 10010KT 9999 FEW030

本日の天候は晴れ、周辺の田んぼでは野焼き真っ盛り。
訓練生は実地試験の科目の練習やNAV訓練、ライセンサーは教育証明の訓練やNAV訓練やサーマルを探しまわっていました。


解散    18:00

1番機  11:00離陸 撤収機  16:15着陸 

SF25C JA2330 ファルケ     09Flt.2h55min  
17E   JA2342 タイフーン    06Flt.2h35min
合計                    15Flt.5h30min
10月31日
by OGC at 2021/10/31(日) 19:42:07 No.20211031193853 コメント】  削除 引用
640 x 480 x 132,954バイト
No.1

10月31日
本日の参加者
  会員      16名
  その他      1名


@本日の様子






METAR
RJBK 310000Z VRB02KT 15KM FEW008CU SCT015CU BKN060SC 14/13 Q1024 A3025
RJOB 310000Z VRB01KT 9000 -RA FEW007 SCT040 BKN080 14/13 Q1024
RJOT 310000Z 04005KT 9999 FEW001 SCT003 BKN090 15/15 Q1023
RJOA 310000Z 07007KT 9999 PRFG FEW000 BKN100 14/12 Q1024
TAF
RJOB 302305Z 3100/0106 03005KT 9999 FEW010 SCT045
       BECMG 0100/0103 30005KT
RJOT 302305Z 3100/0106 03006KT 4000 -RA BR FEW020 SCT040
       TEMPO 3100/3101 1500 -RA BR BCFG FEW000 SCT003 BKN005
       BECMG 3101/3103 9999 NSW
       BECMG 3121/0100 29007KT
RJOA 302305Z 3100/0106 14005KT 9999 FEW015 SCT035
       BECMG 3108/3110 33005KT

本日の天候は朝方、小雨でしたが徐々に天候が回復し、昼頃から青空も見えるようになりました。
訓練生はTGLや実地試験の科目の練習、ライセンサーはサーマルを探しまわったり、教育証明の練習を行っていました。


解散    17:00

1番機  10:40離陸 撤収機  16:05着陸 

SF25C JA2330 ファルケ     08Flt.3h15min  
17E   JA2342 タイフーン    04Flt.1h35min
合計                    12Flt.4h50min
10月30日
by OGC at 2021/10/31(日) 19:02:48 No.20211031185943 コメント】  削除 引用
640 x 480 x 132,285バイト
No.1

10月30日
本日の参加者
  会員       6名
  その他      0名


@本日の様子






METAR
RJBK 300100Z 06003KT 020V090 25KM FEW025CU SCT/// 15/09 Q1025 A3029
RJOB 300100Z 07006KT 040V110 9999 FEW020 SCT/// 15/08 Q1025
RJOT 300100Z 08006KT 030V110 9999 FEW025 SCT/// 17/12 Q1025
RJOA 300100Z 13008KT 070V160 9999 FEW020 15/09 Q1025
TAF
RJOB 292305Z 3000/3106 08005KT 9999 FEW020
RJOT 292305Z 3000/3106 05006KT 9999 FEW025
RJOA 292305Z 3000/3106 12005KT 9999 FEW025 SCT045

本日の天候は晴れ。
訓練生はTGLやSOLOフライト、ライセンサーはSOLOで滑空に出ていました。


解散    16:00

1番機  11:05離陸 撤収機  14:45着陸 

SF25C JA2330 ファルケ     04Flt.2h35min  
17E   JA2342 タイフーン    00Flt.0h00min
合計                    04Flt.2h35min
10月24日
by OGC at 2021/10/24(日) 23:37:38 No.20211024233412 コメント】  削除 引用
640 x 480 x 132,954バイト
No.1

10月24日
本日の参加者
  会員      12名
  その他      2名


@本日の様子






METAR
RJBK 240000Z VRB01KT 25KM FEW025CU BKN/// 12/08 Q1028 A3036
RJOB 240000Z VRB02KT 9999 FEW015 BKN/// 12/09 Q1027
RJOT 240000Z 06006KT 020V090 9999 FEW025 BKN/// 15/07 Q1027
RJOA 240000Z 07007KT 9999 FEW025 SCT170 BKN/// 13/06 Q1027
TAF
RJOB 232305Z 2400/2506 06005KT 9999 FEW025
RJOT 232305Z 2400/2506 06010KT 9999 FEW030
       BECMG 2407/2409 15005KT
       TEMPO 2500/2506 4000 RA BR FEW001 SCT005 BKN008
RJOA 232305Z 2400/2506 10008KT 9999 FEW025
       BECMG 2409/2411 35006KT
       BECMG 2500/2503 10006KT

本日の天候は晴れ後曇り、昨日とは打って変わってサーマルは殆どなしで穏やかな空でした。
訓練生は、TGL、ライセンサーはNAVや久しぶりにタイフーンに乗っていました。


解散    17:30

1番機  10:35離陸 撤収機  16:35着陸 

SF25C JA2330 ファルケ     07Flt.3h30min  
17E   JA2342 タイフーン    03Flt.1h10min
合計                    10Flt.4h40min

 ハードディスクが読み込まない時に注意したい事と復旧する方法    Macのデータ復旧・自分でできる復元方法やバックアップ対策を紹介!

ホームページへ 全 61 件 [ 1 2 3 4 5 6 7 ]

モータースポーツ | 管理者へメール | お知らせ | 一括削除
携帯から使う方法 | ヘルプ | 利用規約 | 違反報告 | 管理パネル



- 無料レンタル掲示板 -